createdAt,value
2022-08-31T00:00:54.771Z,20
2022-08-31T00:01:54.717Z,20
2022-08-31T00:02:54.708Z,20
2022-08-31T00:03:54.699Z,20
2022-08-31T00:04:54.686Z,20
2022-08-31T00:05:54.682Z,20
2022-08-31T00:06:54.667Z,20
2022-08-31T00:07:54.660Z,20
2022-08-31T00:08:54.669Z,20
2022-08-31T00:09:54.631Z,20
2022-08-31T00:10:54.640Z,20
2022-08-31T00:11:54.621Z,20
2022-08-31T00:12:54.602Z,20
2022-08-31T00:13:54.612Z,20
2022-08-31T00:14:54.582Z,20
2022-08-31T00:15:54.567Z,20
2022-08-31T00:16:54.560Z,20
2022-08-31T00:17:54.548Z,20
2022-08-31T00:18:54.540Z,20
2022-08-31T00:19:54.535Z,20
2022-08-31T00:20:54.527Z,20
2022-08-31T00:21:54.505Z,20
2022-08-31T00:22:54.497Z,20
2022-08-31T00:23:54.486Z,20
2022-08-31T00:24:54.469Z,20
2022-08-31T00:25:54.488Z,20
2022-08-31T00:26:54.456Z,20
2022-08-31T00:27:54.440Z,20
2022-08-31T00:28:54.441Z,20
2022-08-31T00:29:54.416Z,20
2022-08-31T00:30:54.407Z,20
2022-08-31T00:31:54.418Z,20
2022-08-31T00:32:54.404Z,20
2022-08-31T00:33:54.376Z,20
2022-08-31T00:34:54.365Z,20
2022-08-31T00:35:54.352Z,20
2022-08-31T00:36:54.356Z,20
2022-08-31T00:37:54.331Z,20
2022-08-31T00:38:54.323Z,20
2022-08-31T00:39:54.313Z,20
2022-08-31T00:40:54.375Z,20
2022-08-31T00:41:54.285Z,20
2022-08-31T00:42:54.284Z,20
2022-08-31T00:43:54.267Z,20
2022-08-31T00:44:54.259Z,20
2022-08-31T00:45:54.260Z,20
2022-08-31T00:46:54.250Z,20
2022-08-31T00:47:54.221Z,20
2022-08-31T00:48:54.211Z,20
2022-08-31T00:49:54.204Z,20
2022-08-31T00:50:54.195Z,20
2022-08-31T00:51:54.181Z,20
2022-08-31T00:52:54.184Z,20
2022-08-31T00:53:54.161Z,20
2022-08-31T00:54:54.153Z,20
2022-08-31T00:55:54.149Z,20
2022-08-31T00:56:54.129Z,20
2022-08-31T00:57:54.119Z,20
2022-08-31T00:58:54.129Z,20
2022-08-31T00:59:54.090Z,20
2022-08-31T01:00:54.087Z,20
2022-08-31T01:01:54.070Z,20
2022-08-31T01:02:54.068Z,20
2022-08-31T01:03:54.049Z,20
2022-08-31T01:04:54.052Z,20
2022-08-31T01:05:54.044Z,20
2022-08-31T01:06:54.025Z,20
2022-08-31T01:07:54.018Z,20
2022-08-31T01:08:53.998Z,20
2022-08-31T01:09:54.000Z,20
2022-08-31T01:10:53.983Z,20
2022-08-31T01:11:53.969Z,20
2022-08-31T01:12:53.968Z,20
2022-08-31T01:13:53.948Z,20
2022-08-31T01:14:53.928Z,20
2022-08-31T01:15:53.925Z,20
2022-08-31T01:16:53.914Z,20
2022-08-31T01:17:53.909Z,20
2022-08-31T01:18:53.893Z,20
2022-08-31T01:19:53.904Z,20
2022-08-31T01:20:53.865Z,20
2022-08-31T01:21:53.858Z,20
2022-08-31T01:22:53.866Z,20
2022-08-31T01:23:53.834Z,20
2022-08-31T01:24:53.825Z,20
2022-08-31T01:25:53.818Z,20
2022-08-31T01:26:53.803Z,20
2022-08-31T01:27:53.812Z,20
2022-08-31T01:28:53.779Z,20
2022-08-31T01:29:53.770Z,20
2022-08-31T01:30:53.765Z,20
2022-08-31T01:31:53.746Z,20
2022-08-31T01:32:53.735Z,20
2022-08-31T01:33:53.740Z,20
2022-08-31T01:34:53.715Z,20
2022-08-31T01:35:53.711Z,20
2022-08-31T01:36:53.709Z,20
2022-08-31T01:37:53.686Z,20
2022-08-31T01:38:53.680Z,20
2022-08-31T01:39:53.675Z,20
2022-08-31T01:40:53.666Z,20
2022-08-31T01:41:53.669Z,20
2022-08-31T01:42:53.629Z,20
2022-08-31T01:43:53.620Z,20
2022-08-31T01:44:53.633Z,20
2022-08-31T01:45:53.598Z,20
2022-08-31T01:46:53.585Z,20
2022-08-31T01:47:53.589Z,20
2022-08-31T01:48:53.599Z,20
2022-08-31T01:49:53.553Z,20
2022-08-31T01:50:53.549Z,20
2022-08-31T01:51:53.543Z,20
2022-08-31T01:52:53.527Z,20
2022-08-31T01:53:53.520Z,20
2022-08-31T01:54:53.519Z,20
2022-08-31T01:55:53.500Z,20
2022-08-31T01:56:53.481Z,20
2022-08-31T01:57:53.478Z,20
2022-08-31T01:58:53.473Z,20
2022-08-31T01:59:53.451Z,20
2022-08-31T02:00:53.448Z,20
2022-08-31T02:01:53.437Z,20
2022-08-31T02:02:53.410Z,20
2022-08-31T02:03:53.405Z,20
2022-08-31T02:04:53.433Z,20
2022-08-31T02:06:53.372Z,20
2022-08-31T02:07:53.369Z,20
2022-08-31T02:08:53.361Z,20
2022-08-31T02:09:53.341Z,20
2022-08-31T02:10:53.338Z,20
2022-08-31T02:11:53.316Z,20
2022-08-31T02:12:53.307Z,20
2022-08-31T02:13:53.297Z,20
2022-08-31T02:14:53.296Z,20
2022-08-31T02:15:53.292Z,20
2022-08-31T02:16:53.332Z,20
2022-08-31T02:17:53.252Z,20
2022-08-31T02:18:53.264Z,20
2022-08-31T02:19:53.235Z,20
2022-08-31T02:20:53.221Z,20
2022-08-31T02:21:53.218Z,20
2022-08-31T02:22:53.236Z,20
2022-08-31T02:23:53.194Z,20
2022-08-31T02:24:53.180Z,20
2022-08-31T02:25:53.188Z,20
2022-08-31T02:26:53.181Z,20
2022-08-31T02:27:53.175Z,20
2022-08-31T02:28:53.177Z,20
2022-08-31T02:29:53.132Z,20
2022-08-31T02:30:53.116Z,20
2022-08-31T02:31:53.104Z,20
2022-08-31T02:32:53.100Z,20
2022-08-31T02:33:53.086Z,20
2022-08-31T02:34:53.088Z,20
2022-08-31T02:35:53.068Z,20
2022-08-31T02:36:53.052Z,20
2022-08-31T02:37:53.041Z,20
2022-08-31T02:38:53.031Z,20
2022-08-31T02:39:53.020Z,20
2022-08-31T02:40:53.015Z,20
2022-08-31T02:41:53.003Z,20
2022-08-31T02:42:52.991Z,20
2022-08-31T02:43:52.984Z,20
2022-08-31T02:44:52.970Z,20
2022-08-31T02:45:52.957Z,20
2022-08-31T02:46:52.946Z,20
2022-08-31T02:47:52.930Z,20
2022-08-31T02:48:52.925Z,20
2022-08-31T02:49:52.912Z,20
2022-08-31T02:50:52.917Z,20
2022-08-31T02:51:52.901Z,20
2022-08-31T02:52:52.884Z,20
2022-08-31T02:53:52.883Z,20
2022-08-31T02:54:52.856Z,20
2022-08-31T02:55:52.853Z,20
2022-08-31T02:56:52.846Z,20
2022-08-31T02:57:52.827Z,20
2022-08-31T02:58:52.819Z,20
2022-08-31T02:59:52.810Z,20
2022-08-31T03:00:52.793Z,24
2022-08-31T03:01:52.792Z,24
2022-08-31T03:02:52.776Z,24
2022-08-31T03:03:52.765Z,24
2022-08-31T03:04:52.756Z,24
2022-08-31T03:05:52.748Z,24
2022-08-31T03:06:52.737Z,24
2022-08-31T03:07:52.739Z,24
2022-08-31T03:08:52.710Z,24
2022-08-31T03:09:52.701Z,24
2022-08-31T03:10:52.688Z,24
2022-08-31T03:11:52.675Z,24
2022-08-31T03:12:52.672Z,24
2022-08-31T03:13:52.685Z,24
2022-08-31T03:14:52.648Z,24
2022-08-31T03:15:52.638Z,24
2022-08-31T03:16:52.622Z,24
2022-08-31T03:17:52.614Z,24
2022-08-31T03:18:52.613Z,24
2022-08-31T03:19:52.589Z,24
2022-08-31T03:20:52.586Z,24
2022-08-31T03:21:52.578Z,24
2022-08-31T03:22:52.560Z,24
2022-08-31T03:23:52.568Z,24
2022-08-31T03:26:21.573Z,24
2022-08-31T03:27:21.557Z,24
2022-08-31T03:28:21.564Z,24
2022-08-31T03:29:21.567Z,24
2022-08-31T03:30:21.545Z,24
2022-08-31T03:31:21.520Z,24
2022-08-31T03:32:21.504Z,24
2022-08-31T03:33:21.497Z,24
2022-08-31T03:34:21.483Z,24
2022-08-31T03:35:21.477Z,24
2022-08-31T03:36:21.473Z,24
2022-08-31T03:37:21.453Z,24
2022-08-31T03:38:21.435Z,24
2022-08-31T03:39:21.446Z,24
2022-08-31T03:40:21.420Z,24
2022-08-31T03:41:21.413Z,24
2022-08-31T03:42:21.397Z,24
2022-08-31T03:43:21.389Z,24
2022-08-31T03:44:21.385Z,24
2022-08-31T03:45:21.364Z,24
2022-08-31T03:46:21.353Z,24
2022-08-31T03:47:21.344Z,24
2022-08-31T03:48:21.338Z,24
2022-08-31T03:49:21.320Z,24
2022-08-31T03:50:21.315Z,28
2022-08-31T03:51:21.319Z,24
2022-08-31T03:52:21.301Z,24
2022-08-31T03:53:21.282Z,24
2022-08-31T03:54:21.270Z,24
2022-08-31T03:55:21.259Z,24
2022-08-31T03:56:21.259Z,24
2022-08-31T03:57:21.239Z,24
2022-08-31T03:58:21.235Z,24
2022-08-31T03:59:21.213Z,24
2022-08-31T04:00:21.220Z,24
2022-08-31T04:01:21.190Z,28
2022-08-31T04:02:21.188Z,28
2022-08-31T04:03:21.177Z,28
2022-08-31T04:04:21.166Z,28
2022-08-31T04:05:21.152Z,24
2022-08-31T04:06:21.136Z,28
2022-08-31T04:07:21.130Z,28
2022-08-31T04:08:21.117Z,28
2022-08-31T04:09:21.108Z,28
2022-08-31T04:10:21.095Z,32
2022-08-31T04:11:21.105Z,28
2022-08-31T04:12:21.083Z,32
2022-08-31T04:13:21.065Z,32
2022-08-31T04:14:21.057Z,32
2022-08-31T04:15:21.050Z,32
2022-08-31T04:16:21.113Z,28
2022-08-31T04:17:21.032Z,24
2022-08-31T04:18:21.008Z,28
2022-08-31T04:19:21.005Z,32
2022-08-31T04:20:20.993Z,36
2022-08-31T04:21:20.980Z,36
2022-08-31T04:22:20.972Z,40
2022-08-31T04:23:20.980Z,44
2022-08-31T04:24:20.950Z,48
2022-08-31T04:25:20.944Z,52
2022-08-31T04:26:20.932Z,56
2022-08-31T04:27:20.968Z,64
2022-08-31T04:28:20.899Z,72
2022-08-31T04:29:20.891Z,76
2022-08-31T04:30:20.884Z,84
2022-08-31T04:31:20.873Z,92
2022-08-31T04:32:20.862Z,100
2022-08-31T04:33:20.858Z,112
2022-08-31T04:34:20.839Z,120
2022-08-31T04:35:20.825Z,128
2022-08-31T04:36:20.825Z,140
2022-08-31T04:37:20.835Z,152
2022-08-31T04:38:20.809Z,148
2022-08-31T04:39:20.789Z,164
2022-08-31T04:40:20.777Z,180
2022-08-31T04:41:20.774Z,196
2022-08-31T04:42:20.760Z,216
2022-08-31T04:43:20.775Z,232
2022-08-31T04:44:20.733Z,248
2022-08-31T04:45:20.723Z,264
2022-08-31T04:46:20.719Z,280
2022-08-31T04:47:20.715Z,296
2022-08-31T04:48:20.687Z,308
2022-08-31T04:49:20.681Z,320
2022-08-31T04:50:20.672Z,340
2022-08-31T04:51:20.667Z,360
2022-08-31T04:52:20.646Z,388
2022-08-31T04:53:20.648Z,416
2022-08-31T04:54:20.627Z,420
2022-08-31T04:55:20.618Z,432
2022-08-31T04:56:20.638Z,448
2022-08-31T04:57:20.599Z,460
2022-08-31T04:58:20.587Z,476
2022-08-31T04:59:20.588Z,492
2022-08-31T05:00:20.565Z,512
2022-08-31T05:01:20.552Z,532
2022-08-31T05:02:20.540Z,560
2022-08-31T05:03:20.530Z,588
2022-08-31T05:04:20.524Z,620
2022-08-31T05:05:20.531Z,652
2022-08-31T05:06:20.499Z,672
2022-08-31T05:07:20.489Z,688
2022-08-31T05:08:20.479Z,696
2022-08-31T05:09:20.462Z,708
2022-08-31T05:10:20.466Z,720
2022-08-31T05:11:20.462Z,732
2022-08-31T05:12:20.449Z,744
2022-08-31T05:13:20.424Z,764
2022-08-31T05:14:20.424Z,776
2022-08-31T05:15:20.413Z,800
2022-08-31T05:16:20.409Z,820
2022-08-31T05:17:20.401Z,844
2022-08-31T05:18:20.409Z,868
2022-08-31T05:19:20.371Z,896
2022-08-31T05:20:20.345Z,920
2022-08-31T05:21:20.369Z,908
2022-08-31T05:22:20.343Z,940
2022-08-31T05:23:20.330Z,956
2022-08-31T05:24:20.303Z,984
2022-08-31T05:25:20.299Z,1016
2022-08-31T05:26:20.287Z,1052
2022-08-31T05:27:20.272Z,1100
2022-08-31T05:28:20.262Z,1152
2022-08-31T05:29:20.255Z,1200
2022-08-31T05:30:20.239Z,1228
2022-08-31T05:31:20.237Z,1272
2022-08-31T05:32:20.226Z,1280
2022-08-31T05:33:20.213Z,1300
2022-08-31T05:34:20.204Z,1296
2022-08-31T05:35:20.246Z,1292
2022-08-31T05:36:20.208Z,1292
2022-08-31T05:37:20.194Z,1320
2022-08-31T05:38:20.180Z,1352
2022-08-31T05:39:20.175Z,1392
2022-08-31T05:40:20.146Z,1468
2022-08-31T05:41:20.158Z,1516
2022-08-31T05:42:20.216Z,1648
2022-08-31T05:43:20.099Z,1760
2022-08-31T05:44:20.101Z,1936
2022-08-31T05:45:20.085Z,2044
2022-08-31T05:46:20.072Z,2164
2022-08-31T05:47:20.094Z,2204
2022-08-31T05:48:20.053Z,2100
2022-08-31T05:49:20.036Z,2028
2022-08-31T05:50:20.029Z,2136
2022-08-31T05:51:20.013Z,2260
2022-08-31T05:52:20.001Z,2308
2022-08-31T05:53:19.999Z,2324
2022-08-31T05:54:20.009Z,2440
2022-08-31T05:55:19.992Z,2492
2022-08-31T05:56:19.973Z,2492
2022-08-31T05:57:19.953Z,2552
2022-08-31T05:58:19.936Z,2648
2022-08-31T05:59:19.947Z,2752
2022-08-31T06:00:19.918Z,2852
2022-08-31T06:01:19.918Z,2908
2022-08-31T06:02:19.899Z,2996
2022-08-31T06:03:19.886Z,3040
2022-08-31T06:04:19.882Z,3044
2022-08-31T06:05:19.864Z,2996
2022-08-31T06:06:19.856Z,3012
2022-08-31T06:07:19.862Z,3148
2022-08-31T06:08:19.900Z,3312
2022-08-31T06:09:19.823Z,3432
2022-08-31T06:10:19.811Z,3624
2022-08-31T06:11:19.801Z,3832
2022-08-31T06:12:19.793Z,3920
2022-08-31T06:13:19.778Z,4060
2022-08-31T06:14:19.773Z,3936
2022-08-31T06:15:19.762Z,3940
2022-08-31T06:16:19.809Z,3980
2022-08-31T06:17:19.803Z,4012
2022-08-31T06:18:19.764Z,4000
2022-08-31T06:19:19.772Z,3988
2022-08-31T06:20:19.768Z,3980
2022-08-31T06:21:19.692Z,3940
2022-08-31T06:22:19.680Z,3916
2022-08-31T06:23:19.674Z,4036
2022-08-31T06:24:19.700Z,4088
2022-08-31T06:25:19.655Z,4152
2022-08-31T06:26:19.640Z,4160
2022-08-31T06:27:19.630Z,4116
2022-08-31T06:28:19.617Z,4076
2022-08-31T06:29:19.611Z,4100
2022-08-31T06:30:19.605Z,4084
2022-08-31T06:31:19.584Z,4104
2022-08-31T06:32:19.580Z,4160
2022-08-31T06:33:19.574Z,4256
2022-08-31T06:34:19.552Z,4388
2022-08-31T06:35:19.549Z,4684
2022-08-31T06:36:19.532Z,4880
2022-08-31T06:37:19.518Z,4916
2022-08-31T06:38:19.509Z,5004
2022-08-31T06:39:19.520Z,5156
2022-08-31T06:40:19.488Z,5208
2022-08-31T06:41:19.488Z,5312
2022-08-31T06:42:19.470Z,5632
2022-08-31T06:43:19.455Z,5852
2022-08-31T06:44:19.454Z,5856
2022-08-31T06:45:19.514Z,5780
2022-08-31T06:46:19.428Z,5876
2022-08-31T06:47:19.424Z,5932
2022-08-31T06:48:19.397Z,9860
2022-08-31T06:49:19.416Z,5652
2022-08-31T06:50:19.387Z,5512
2022-08-31T06:51:19.398Z,4720
2022-08-31T06:52:27.171Z,4732
2022-08-31T06:53:19.351Z,4712
2022-08-31T06:54:19.332Z,4860
2022-08-31T06:55:19.327Z,5112
2022-08-31T06:56:19.329Z,5216
2022-08-31T06:57:19.308Z,5428
2022-08-31T06:58:19.298Z,5316
2022-08-31T06:59:19.290Z,5444
2022-08-31T07:00:19.276Z,5684
2022-08-31T07:01:19.269Z,4936
2022-08-31T07:02:19.254Z,4888
2022-08-31T07:03:19.256Z,5008
2022-08-31T07:04:19.243Z,4956
2022-08-31T07:05:19.220Z,5148
2022-08-31T07:06:19.211Z,5316
2022-08-31T07:07:19.208Z,5508
2022-08-31T07:08:19.188Z,5716
2022-08-31T07:09:19.176Z,5932
2022-08-31T07:10:19.164Z,6072
2022-08-31T07:11:19.148Z,6224
2022-08-31T07:12:19.143Z,6420
2022-08-31T07:13:19.142Z,6980
2022-08-31T07:14:19.124Z,7192
2022-08-31T07:15:19.146Z,7904
2022-08-31T07:16:19.102Z,8376
2022-08-31T07:17:19.089Z,8496
2022-08-31T07:18:19.093Z,7920
2022-08-31T07:19:19.079Z,8564
2022-08-31T07:20:19.060Z,8136
2022-08-31T07:21:19.060Z,8548
2022-08-31T07:22:19.040Z,9512
2022-08-31T07:23:19.027Z,8772
2022-08-31T07:24:19.018Z,7928
2022-08-31T07:25:19.004Z,7344
2022-08-31T07:26:19.004Z,7072
2022-08-31T07:27:18.983Z,6780
2022-08-31T07:28:19.003Z,6704
2022-08-31T07:29:18.973Z,6576
2022-08-31T07:30:18.947Z,6436
2022-08-31T07:31:18.939Z,6472
2022-08-31T07:32:18.970Z,6516
2022-08-31T07:33:18.922Z,6528
2022-08-31T07:34:18.922Z,6860
2022-08-31T07:35:18.903Z,6816
2022-08-31T07:36:18.884Z,6800
2022-08-31T07:37:18.885Z,6328
2022-08-31T07:38:18.866Z,6080
2022-08-31T07:39:18.851Z,6160
2022-08-31T07:40:18.848Z,6200
2022-08-31T07:41:18.868Z,6120
2022-08-31T07:42:18.818Z,5872
2022-08-31T07:43:18.814Z,5596
2022-08-31T07:44:18.816Z,5436
2022-08-31T07:45:18.787Z,5532
2022-08-31T07:46:18.781Z,6060
2022-08-31T07:47:18.770Z,6320
2022-08-31T07:48:18.886Z,6848
2022-08-31T07:50:38.137Z,7264
2022-08-31T07:51:38.071Z,7172
2022-08-31T07:52:38.183Z,6544
2022-08-31T07:53:38.054Z,6508
2022-08-31T07:54:38.061Z,6644
2022-08-31T07:55:38.046Z,7620
2022-08-31T07:56:38.024Z,7612
2022-08-31T07:57:38.016Z,7064
2022-08-31T07:58:38.032Z,6860
2022-08-31T07:59:37.985Z,7332
2022-08-31T08:00:37.987Z,7880
2022-08-31T08:01:37.967Z,7804
2022-08-31T08:02:38.022Z,8420
2022-08-31T08:03:37.950Z,8516
2022-08-31T08:04:37.943Z,8612
2022-08-31T08:05:37.929Z,8320
2022-08-31T08:06:37.922Z,7908
2022-08-31T08:07:37.906Z,9008
2022-08-31T08:08:37.902Z,9244
2022-08-31T08:09:37.888Z,9284
2022-08-31T08:10:37.882Z,9248
2022-08-31T08:11:37.866Z,9432
2022-08-31T08:12:38.642Z,9672
2022-08-31T08:13:37.846Z,10176
2022-08-31T08:14:37.853Z,10484
2022-08-31T08:15:37.910Z,9716
2022-08-31T08:16:37.816Z,12068
2022-08-31T08:17:37.815Z,10700
2022-08-31T08:18:37.805Z,14212
2022-08-31T08:19:37.874Z,17216
2022-08-31T08:20:37.780Z,18208
2022-08-31T08:21:37.766Z,19840
2022-08-31T08:22:37.758Z,25344
2022-08-31T08:23:37.746Z,22688
2022-08-31T08:24:37.729Z,15052
2022-08-31T08:25:37.724Z,10644
2022-08-31T08:26:37.714Z,14828
2022-08-31T08:27:37.707Z,17024
2022-08-31T08:28:37.685Z,16640
2022-08-31T08:29:37.681Z,16480
2022-08-31T08:30:37.668Z,16800
2022-08-31T08:31:37.695Z,17088
2022-08-31T08:32:37.652Z,17568
2022-08-31T08:33:37.634Z,17760
2022-08-31T08:34:37.627Z,17984
2022-08-31T08:35:37.620Z,18016
2022-08-31T08:36:37.672Z,18336
2022-08-31T08:37:37.610Z,18624
2022-08-31T08:38:37.587Z,19072
2022-08-31T08:39:37.575Z,19744
2022-08-31T08:40:37.566Z,22144
2022-08-31T08:41:37.604Z,29536
2022-08-31T08:42:37.544Z,35296
2022-08-31T08:43:37.527Z,36288
2022-08-31T08:44:37.529Z,37152
2022-08-31T08:45:37.529Z,37888
2022-08-31T08:46:37.512Z,37248
2022-08-31T08:47:37.492Z,37920
2022-08-31T08:48:37.484Z,42144
2022-08-31T08:49:37.468Z,43904
2022-08-31T08:50:37.473Z,46848
2022-08-31T08:51:37.463Z,48192
2022-08-31T08:52:37.441Z,49184
2022-08-31T08:53:37.433Z,49696
2022-08-31T08:54:37.468Z,53120
2022-08-31T08:55:37.401Z,53408
2022-08-31T08:56:37.393Z,54880
2022-08-31T08:57:37.418Z,56128
2022-08-31T08:58:38.183Z,55136
2022-08-31T08:59:37.385Z,42752
2022-08-31T09:00:37.355Z,40576
2022-08-31T09:01:37.337Z,52192
2022-08-31T09:02:37.327Z,51136
2022-08-31T09:03:37.335Z,49824
2022-08-31T09:04:37.310Z,18848
2022-08-31T09:05:37.353Z,33952
2022-08-31T09:06:37.293Z,25600
2022-08-31T09:07:37.278Z,35680
2022-08-31T09:08:37.294Z,14360
2022-08-31T09:09:37.261Z,16080
2022-08-31T09:10:37.340Z,15052
2022-08-31T09:11:38.238Z,21088
2022-08-31T09:12:37.242Z,26752
2022-08-31T09:13:37.242Z,42848
2022-08-31T09:14:37.213Z,56608
2022-08-31T09:15:37.231Z,49536
2022-08-31T09:16:37.182Z,50176
2022-08-31T09:17:37.178Z,23552
2022-08-31T09:18:38.083Z,13868
2022-08-31T09:19:37.155Z,13484
2022-08-31T09:20:37.150Z,31648
2022-08-31T09:21:37.211Z,15836
2022-08-31T09:22:37.144Z,14764
2022-08-31T09:23:37.115Z,16008
2022-08-31T09:24:37.433Z,21344
2022-08-31T09:25:37.100Z,29664
2022-08-31T09:26:37.090Z,18496
2022-08-31T09:27:37.097Z,17056
2022-08-31T09:28:37.062Z,15228
2022-08-31T09:29:37.051Z,14544
2022-08-31T09:30:37.078Z,13752
2022-08-31T09:31:37.160Z,13296
2022-08-31T09:32:37.063Z,13488
2022-08-31T09:33:37.044Z,13396
2022-08-31T09:34:37.001Z,13648
2022-08-31T09:35:36.992Z,13684
2022-08-31T09:36:36.990Z,13468
2022-08-31T09:37:36.977Z,13648
2022-08-31T09:38:36.965Z,13256
2022-08-31T09:39:36.953Z,13384
2022-08-31T09:40:36.941Z,12980
2022-08-31T09:41:37.069Z,13060
2022-08-31T09:42:37.037Z,13168
2022-08-31T09:43:36.907Z,13152
2022-08-31T09:44:36.899Z,13328
2022-08-31T09:45:36.892Z,13412
2022-08-31T09:46:36.891Z,13152
2022-08-31T09:47:36.860Z,13744
2022-08-31T09:48:36.853Z,14660
2022-08-31T09:49:36.846Z,13244
2022-08-31T09:50:36.847Z,14700
2022-08-31T09:51:36.825Z,14340
2022-08-31T09:52:36.827Z,15320
2022-08-31T09:53:36.796Z,13904
2022-08-31T09:54:36.795Z,16112
2022-08-31T09:55:36.796Z,17184
2022-08-31T09:56:36.803Z,14300
2022-08-31T09:57:36.795Z,17728
2022-08-31T09:58:36.751Z,13140
2022-08-31T09:59:36.746Z,13424
2022-08-31T10:00:36.764Z,11024
2022-08-31T10:01:36.753Z,10120
2022-08-31T10:02:36.724Z,10308
2022-08-31T10:03:36.706Z,10136
2022-08-31T10:04:36.704Z,9928
2022-08-31T10:05:36.688Z,9708
2022-08-31T10:06:36.676Z,31008
2022-08-31T10:07:36.710Z,33120
2022-08-31T10:08:36.666Z,59008
2022-08-31T10:09:36.633Z,15884
2022-08-31T10:10:36.653Z,12328
2022-08-31T10:11:36.610Z,12104
2022-08-31T10:12:36.624Z,16792
2022-08-31T10:13:36.599Z,35328
2022-08-31T10:14:36.587Z,39680
2022-08-31T10:15:36.577Z,13832
2022-08-31T10:16:36.586Z,20000
2022-08-31T10:17:36.575Z,10980
2022-08-31T10:18:36.558Z,43424
2022-08-31T10:19:36.547Z,53248
2022-08-31T10:20:36.532Z,56384
2022-08-31T10:21:36.510Z,57856
2022-08-31T10:22:36.491Z,57440
2022-08-31T10:23:36.499Z,58816
2022-08-31T10:24:36.477Z,62240
2022-08-31T10:25:36.469Z,62784
2022-08-31T10:26:36.458Z,63200
2022-08-31T10:27:36.555Z,62464
2022-08-31T10:28:36.434Z,58720
2022-08-31T10:29:36.444Z,59040
2022-08-31T10:30:36.418Z,58208
2022-08-31T10:31:36.423Z,57760
2022-08-31T10:32:36.409Z,57088
2022-08-31T10:33:36.386Z,56768
2022-08-31T10:34:36.386Z,46240
2022-08-31T10:35:36.364Z,24448
2022-08-31T10:36:36.354Z,20928
2022-08-31T10:37:36.348Z,23392
2022-08-31T10:38:36.361Z,25888
2022-08-31T10:39:37.332Z,22336
2022-08-31T10:40:36.308Z,25376
2022-08-31T10:41:36.351Z,22272
2022-08-31T10:42:36.295Z,19744
2022-08-31T10:43:36.298Z,18752
2022-08-31T10:44:36.285Z,17760
2022-08-31T10:45:36.270Z,16500
2022-08-31T10:46:36.272Z,15744
2022-08-31T10:47:36.242Z,38944
2022-08-31T10:48:36.238Z,58624
2022-08-31T10:49:36.215Z,63520
2022-08-31T10:50:36.214Z,69888
2022-08-31T10:51:36.204Z,78656
2022-08-31T10:52:36.184Z,78208
2022-08-31T10:53:36.261Z,29408
2022-08-31T10:54:36.193Z,72736
2022-08-31T10:55:36.160Z,68928
2022-08-31T10:56:36.160Z,82368
2022-08-31T10:57:36.164Z,79648
2022-08-31T10:58:36.131Z,79904
2022-08-31T10:59:36.138Z,72000
2022-08-31T11:00:36.111Z,77280
2022-08-31T11:01:36.104Z,78752
2022-08-31T11:02:36.093Z,83904
2022-08-31T11:03:36.100Z,86560
2022-08-31T11:04:36.087Z,87712
2022-08-31T11:05:36.056Z,85824
2022-08-31T11:06:36.042Z,83552
2022-08-31T11:07:36.051Z,85120
2022-08-31T11:08:36.022Z,86944
2022-08-31T11:09:36.026Z,88416
2022-08-31T11:10:36.018Z,91328
2022-08-31T11:11:35.995Z,94880
2022-08-31T11:12:36.013Z,97088
2022-08-31T11:13:35.980Z,94880
2022-08-31T11:14:36.067Z,91488
2022-08-31T11:15:35.960Z,92928
2022-08-31T11:16:35.941Z,94848
2022-08-31T11:17:35.941Z,96128
2022-08-31T11:18:35.937Z,95456
2022-08-31T11:19:35.923Z,93984
2022-08-31T11:20:35.935Z,92992
2022-08-31T11:21:35.907Z,90784
2022-08-31T11:22:35.888Z,92096
2022-08-31T11:23:35.881Z,93536
2022-08-31T11:24:35.910Z,93760
2022-08-31T11:25:35.873Z,91392
2022-08-31T11:26:36.663Z,84288
2022-08-31T11:27:35.856Z,84224
2022-08-31T11:28:35.835Z,86176
2022-08-31T11:29:35.830Z,90784
2022-08-31T11:30:35.839Z,92064
2022-08-31T11:31:36.801Z,89472
2022-08-31T11:32:35.979Z,89056
2022-08-31T11:33:35.778Z,90400
2022-08-31T11:34:35.770Z,91744
2022-08-31T11:35:35.776Z,92064
2022-08-31T11:36:35.783Z,90080
2022-08-31T11:37:35.761Z,90240
2022-08-31T11:38:35.748Z,93024
2022-08-31T11:39:35.723Z,94976
2022-08-31T11:40:35.716Z,93696
2022-08-31T11:41:35.750Z,94112
2022-08-31T11:42:35.727Z,90080
2022-08-31T11:43:35.687Z,86976
2022-08-31T11:44:35.680Z,86688
2022-08-31T11:45:36.606Z,70112
2022-08-31T11:46:35.664Z,87488
2022-08-31T11:47:35.695Z,84128
2022-08-31T11:48:35.654Z,81760
2022-08-31T11:49:35.627Z,85280
2022-08-31T11:50:36.220Z,88736
2022-08-31T11:51:35.606Z,88896
2022-08-31T11:52:35.592Z,87136
2022-08-31T11:53:35.628Z,92000
2022-08-31T11:54:35.573Z,65600
2022-08-31T11:55:35.576Z,69344
2022-08-31T11:56:35.574Z,24704
2022-08-31T11:57:35.586Z,76640
2022-08-31T11:58:35.544Z,83808
2022-08-31T11:59:35.535Z,85728
2022-08-31T12:00:35.522Z,83808
2022-08-31T12:01:35.505Z,80992
2022-08-31T12:02:35.500Z,80096
2022-08-31T12:03:35.543Z,82528
2022-08-31T12:04:35.556Z,84800
2022-08-31T12:05:35.498Z,84768
2022-08-31T12:06:35.461Z,85504
2022-08-31T12:07:35.452Z,89408
2022-08-31T12:08:35.445Z,91456
2022-08-31T12:09:35.429Z,96096
2022-08-31T12:10:35.424Z,96192
2022-08-31T12:11:35.602Z,95104
2022-08-31T12:12:36.398Z,97088
2022-08-31T12:13:35.397Z,33792
2022-08-31T12:14:35.394Z,11088
2022-08-31T12:15:35.390Z,10724
2022-08-31T12:16:35.377Z,80864
2022-08-31T12:17:35.361Z,29568
2022-08-31T12:18:35.344Z,10500
2022-08-31T12:19:35.332Z,9008
2022-08-31T12:20:35.324Z,7916
2022-08-31T12:21:35.326Z,7272
2022-08-31T12:22:35.325Z,7248
2022-08-31T12:23:35.351Z,7248
2022-08-31T12:24:35.306Z,7872
2022-08-31T12:25:35.272Z,8608
2022-08-31T12:26:35.258Z,9916
2022-08-31T12:27:35.276Z,11668
2022-08-31T12:28:35.285Z,17384
2022-08-31T12:29:35.392Z,21472
2022-08-31T12:30:35.221Z,12088
2022-08-31T12:31:35.220Z,12320
2022-08-31T12:32:35.202Z,15604
2022-08-31T12:33:35.203Z,77344
2022-08-31T12:34:35.198Z,93376
2022-08-31T12:35:35.187Z,82816
2022-08-31T12:36:35.163Z,89184
2022-08-31T12:37:35.173Z,85600
2022-08-31T12:38:35.138Z,85024
2022-08-31T12:39:35.162Z,84896
2022-08-31T12:40:35.135Z,81888
2022-08-31T12:41:35.138Z,71040
2022-08-31T12:42:35.132Z,53760
2022-08-31T12:43:35.131Z,43328
2022-08-31T12:44:35.083Z,54816
2022-08-31T12:45:35.085Z,66304
2022-08-31T12:46:35.100Z,37600
2022-08-31T12:47:35.051Z,35520
2022-08-31T12:48:35.055Z,12296
2022-08-31T12:49:35.034Z,12728
2022-08-31T12:50:35.024Z,65728
2022-08-31T12:51:35.025Z,67840
2022-08-31T12:52:35.009Z,68000
2022-08-31T12:53:35.001Z,72640
2022-08-31T12:54:34.981Z,72032
2022-08-31T12:55:34.972Z,67968
2022-08-31T12:56:34.964Z,53216
2022-08-31T12:57:34.963Z,63456
2022-08-31T12:58:34.945Z,64352
2022-08-31T12:59:34.961Z,20352
2022-08-31T13:00:34.935Z,13456
2022-08-31T13:01:34.914Z,12172
2022-08-31T13:02:34.910Z,11904
2022-08-31T13:03:34.912Z,14152
2022-08-31T13:04:34.926Z,22208
2022-08-31T13:05:34.885Z,87168
2022-08-31T13:06:34.858Z,83040
2022-08-31T13:07:34.870Z,77760
2022-08-31T13:08:34.876Z,76384
2022-08-31T13:09:34.832Z,77184
2022-08-31T13:10:34.824Z,75008
2022-08-31T13:11:34.872Z,75328
2022-08-31T13:12:34.807Z,74400
2022-08-31T13:13:34.811Z,74240
2022-08-31T13:14:34.782Z,73376
2022-08-31T13:15:34.778Z,45056
2022-08-31T13:16:34.762Z,52224
2022-08-31T13:17:34.752Z,52736
2022-08-31T13:18:34.759Z,68928
2022-08-31T13:19:34.742Z,63040
2022-08-31T13:20:34.720Z,65248
2022-08-31T13:21:34.719Z,53088
2022-08-31T13:22:34.721Z,53376
2022-08-31T13:23:34.712Z,28032
2022-08-31T13:24:34.702Z,11480
2022-08-31T13:25:34.705Z,11884
2022-08-31T13:26:34.714Z,11016
2022-08-31T13:27:34.650Z,12096
2022-08-31T13:28:34.717Z,10676
2022-08-31T13:29:44.296Z,12112
2022-08-31T13:30:34.627Z,11892
2022-08-31T13:31:34.630Z,9692